Impacts TAF Board
For situational awareness. Not to be used for flight planning purposes.
IDs:

KTPA - Tampa Intl Arpt, FL, US

Issued at 0259 UTC 23 Oct 2018
Updated at 0358 UTC 23 Oct 2018
Potential Impact None Slight Moderate High
Time0353Z 23/04Z 23/05Z 23/06Z 23/07Z 23/08Z 23/09Z 23/10Z 23/11Z 23/12Z 23/13Z 23/14Z 23/15Z 23/16Z>>
Type OBS PRVL
  [TEMP]  
PRVL
  [TEMP]  
PRVL
  [TEMP]  
PRVL PRVL PRVL PRVL PRVL PRVL PRVL PRVL PRVL PRVL
VIS 10 >6 >6 >6 >6 >6 >6 >6 >6 >6 >6 >6 >6 >6
CIG 60 --
  [60]  
--
  [60]  
--
  [60]  
-- -- -- -- -- -- -- -- -- --
Cover BKN SCT
  [BKN]  
SCT
  [BKN]  
SCT
  [BKN]  
SCT SCT SCT SCT SCT SCT SCT SCT SCT SCT
FltCat VFR VFR
  [VFR]  
VFR
  [VFR]  
VFR
  [VFR]  
VFR VFR VFR VFR VFR VFR VFR VFR VFR VFR
WX -- --
  [--]  
--
  [--]  
--
  [--]  
-- -- -- -- -- -- -- -- -- --
WDir 100 70
[70]
70
[70]
70
[70]
70 70 70 70 70 70 70 70 70 70
WSpd 4 5
  [5]  
5
  [5]  
5
  [5]  
5 5 5 5 5 5 5 5 5 5
WGst -- --
  [--]  
--
  [--]  
--
  [--]  
-- -- -- -- -- -- -- -- -- --
Raw TAF
KTPA 230259Z 2303/2406 07005KT P6SM SCT060 SCT250
  TEMPO 2303/2307 BKN060
  FM231800 24006KT P6SM SCT040 SCT120 BKN250
  FM232100 32006KT P6SM SCT050 BKN120


Raw METAR
KTPA 230353Z 10004KT 10SM BKN060 23/16 A3013 RMK AO2 SLP203 T02330156
KTPA 230253Z 07005KT 10SM OVC060 24/16 A3015 RMK AO2 SLP207 T02390156 51011
KTPA 230153Z 06006KT 10SM SCT055 SCT250 24/15 A3014 RMK AO2 SLP205 T02440150
KTPA 230053Z 06005KT 10SM FEW055 SCT250 25/15 A3013 RMK AO2 SLP201 T02500150

METAR Board
Radar Display
Forecast Discussion
For situational awareness. Not to be used for flight planning purposes.